createdAt,value
2023-03-02T00:02:06.387Z,3.53
2023-03-02T00:04:46.765Z,2.70
2023-03-02T00:07:19.484Z,5.10
2023-03-02T00:09:46.626Z,3.67
2023-03-02T00:12:14.241Z,3.67
2023-03-02T00:14:41.224Z,2.93
2023-03-02T00:17:08.105Z,2.93
2023-03-02T00:19:36.458Z,3.30
2023-03-02T00:22:03.966Z,2.73
2023-03-02T00:24:30.842Z,2.97
2023-03-02T00:26:57.712Z,2.83
2023-03-02T00:29:24.792Z,3.07
2023-03-02T00:31:51.763Z,3.67
2023-03-02T00:34:18.876Z,2.00
2023-03-02T00:36:47.796Z,3.03
2023-03-02T00:39:14.580Z,3.37
2023-03-02T00:41:41.568Z,2.53
2023-03-02T00:44:08.414Z,4.17
2023-03-02T00:46:35.611Z,2.53
2023-03-02T00:49:02.735Z,3.90
2023-03-02T00:51:29.651Z,3.27
2023-03-02T00:53:56.487Z,3.50
2023-03-02T00:56:23.297Z,2.53
2023-03-02T00:58:50.124Z,2.97
2023-03-02T01:01:18.689Z,1.60
2023-03-02T01:03:45.977Z,3.30
2023-03-02T01:06:19.399Z,2.10
2023-03-02T01:08:46.792Z,2.47
2023-03-02T01:11:19.444Z,2.43
2023-03-02T01:13:47.120Z,2.40
2023-03-02T01:16:14.466Z,2.47
2023-03-02T01:18:41.601Z,3.13
2023-03-02T01:21:11.753Z,3.60
2023-03-02T01:23:38.783Z,2.40
2023-03-02T01:26:05.664Z,2.07
2023-03-02T01:28:32.550Z,2.87
2023-03-02T01:31:01.355Z,3.13
2023-03-02T01:33:28.272Z,2.33
2023-03-02T01:35:55.193Z,2.67
2023-03-02T01:38:22.088Z,3.30
2023-03-02T01:40:49.143Z,2.73
2023-03-02T01:43:16.738Z,2.17
2023-03-02T01:45:52.028Z,3.87
2023-03-02T01:48:31.378Z,2.87
2023-03-02T01:51:00.022Z,2.00
2023-03-02T01:53:29.690Z,3.30
2023-03-02T01:55:57.743Z,2.00
2023-03-02T01:58:25.711Z,1.57
2023-03-02T02:00:54.730Z,2.90
2023-03-02T02:03:25.477Z,2.27
2023-03-02T02:06:38.810Z,3.40
2023-03-02T02:09:09.580Z,2.40
2023-03-02T02:11:36.743Z,1.37
2023-03-02T02:14:04.332Z,1.67
2023-03-02T02:16:34.563Z,2.73
2023-03-02T02:19:02.408Z,1.40
2023-03-02T02:21:30.489Z,2.70
2023-03-02T02:24:16.500Z,1.80
2023-03-02T02:26:50.096Z,2.20
2023-03-02T02:29:24.652Z,2.47
2023-03-02T02:32:02.348Z,3.23
2023-03-02T02:34:31.997Z,1.67
2023-03-02T02:37:09.601Z,2.70
2023-03-02T02:39:41.666Z,2.30
2023-03-02T02:42:15.999Z,1.60
2023-03-02T02:44:42.952Z,2.93
2023-03-02T02:47:20.011Z,1.60
2023-03-02T02:49:50.118Z,2.87
2023-03-02T02:52:20.359Z,2.40
2023-03-02T02:54:50.882Z,2.20
2023-03-02T02:57:19.559Z,2.10
2023-03-02T02:59:53.552Z,2.67
2023-03-02T03:02:25.883Z,1.67
2023-03-02T03:04:52.792Z,3.03
2023-03-02T03:07:25.127Z,1.67
2023-03-02T03:10:03.871Z,1.23
2023-03-02T03:12:33.477Z,2.23
2023-03-02T03:15:01.980Z,2.47
2023-03-02T03:17:28.917Z,2.10
2023-03-02T03:20:06.441Z,2.70
2023-03-02T03:22:37.966Z,1.97
2023-03-02T03:25:05.809Z,1.80
2023-03-02T03:27:32.936Z,1.70
2023-03-02T03:30:01.919Z,1.77
2023-03-02T03:32:28.885Z,2.17
2023-03-02T03:34:55.801Z,2.90
2023-03-02T03:37:22.720Z,3.00
2023-03-02T03:39:49.727Z,2.67
2023-03-02T03:42:16.676Z,1.30
2023-03-02T03:44:43.769Z,3.33
2023-03-02T03:47:10.682Z,2.27
2023-03-02T03:49:37.574Z,3.00
2023-03-02T03:52:04.667Z,2.97
2023-03-02T03:54:31.748Z,2.63
2023-03-02T03:56:58.668Z,2.63
2023-03-02T03:59:26.457Z,1.90
2023-03-02T04:01:58.610Z,1.20
2023-03-02T04:04:29.401Z,2.90
2023-03-02T04:06:57.133Z,1.03
2023-03-02T04:09:24.932Z,2.50
2023-03-02T04:11:55.188Z,1.87
2023-03-02T04:14:23.846Z,1.87
2023-03-02T04:16:51.538Z,2.67
2023-03-02T04:19:18.474Z,1.53
2023-03-02T04:21:49.541Z,0.87
2023-03-02T04:24:18.224Z,1.40
2023-03-02T04:26:46.200Z,1.13
2023-03-02T04:29:14.141Z,2.37
2023-03-02T04:31:41.326Z,2.77
2023-03-02T04:34:09.404Z,2.87
2023-03-02T04:36:39.207Z,1.43
2023-03-02T04:39:07.322Z,2.50
2023-03-02T04:41:34.437Z,1.57
2023-03-02T04:44:01.250Z,1.67
2023-03-02T04:46:28.887Z,1.90
2023-03-02T04:48:55.970Z,1.10
2023-03-02T04:51:27.768Z,1.53
2023-03-02T04:53:57.536Z,1.67
2023-03-02T04:56:24.623Z,1.87
2023-03-02T04:58:51.628Z,1.97
2023-03-02T05:01:19.541Z,2.50
2023-03-02T05:03:47.044Z,2.37
2023-03-02T05:06:14.704Z,1.23
2023-03-02T05:08:41.736Z,2.23
2023-03-02T05:11:11.204Z,1.80
2023-03-02T05:13:38.095Z,1.30
2023-03-02T05:16:05.482Z,1.53
2023-03-02T05:18:32.523Z,1.43
2023-03-02T05:20:59.467Z,1.77
2023-03-02T05:23:27.519Z,2.97
2023-03-02T05:25:56.271Z,1.27
2023-03-02T05:28:25.006Z,2.00
2023-03-02T05:30:52.420Z,1.70
2023-03-02T05:33:20.091Z,1.77
2023-03-02T05:35:47.895Z,1.60
2023-03-02T05:38:15.264Z,1.27
2023-03-02T05:40:45.328Z,1.30
2023-03-02T05:43:17.017Z,2.20
2023-03-02T05:45:44.006Z,1.30
2023-03-02T05:48:13.585Z,2.93
2023-03-02T05:50:40.632Z,1.57
2023-03-02T05:53:07.857Z,1.47
2023-03-02T05:55:37.242Z,1.93
2023-03-02T05:58:11.909Z,1.40
2023-03-02T06:00:38.714Z,2.77
2023-03-02T06:03:05.566Z,1.77
2023-03-02T06:05:32.440Z,0.97
2023-03-02T06:07:59.279Z,1.83
2023-03-02T06:10:26.386Z,1.07
2023-03-02T06:12:53.184Z,1.33
2023-03-02T06:15:20.153Z,1.77
2023-03-02T06:17:46.955Z,2.10
2023-03-02T06:20:15.645Z,2.53
2023-03-02T06:22:48.077Z,1.57
2023-03-02T06:25:18.174Z,1.33
2023-03-02T06:27:45.587Z,3.00
2023-03-02T06:30:15.744Z,2.47
2023-03-02T06:32:43.009Z,2.03
2023-03-02T06:35:11.218Z,2.77
2023-03-02T06:37:38.276Z,2.27
2023-03-02T06:40:10.250Z,2.83
2023-03-02T06:42:38.358Z,1.07
2023-03-02T06:45:06.315Z,1.37
2023-03-02T06:47:33.464Z,2.03
2023-03-02T06:50:00.878Z,0.90
2023-03-02T06:52:27.681Z,1.57
2023-03-02T06:54:55.385Z,1.53
2023-03-02T06:57:22.189Z,1.50
2023-03-02T06:59:49.018Z,1.03
2023-03-02T07:02:15.866Z,1.90
2023-03-02T07:04:42.662Z,1.83
2023-03-02T07:07:09.524Z,0.90
2023-03-02T07:09:36.351Z,1.37
2023-03-02T07:12:03.368Z,1.47
2023-03-02T07:14:30.314Z,1.47
2023-03-02T07:16:57.668Z,2.00
2023-03-02T07:19:24.668Z,1.63
2023-03-02T07:21:51.569Z,0.50
2023-03-02T07:24:18.388Z,2.30
2023-03-02T07:26:45.275Z,1.17
2023-03-02T07:29:12.102Z,1.20
2023-03-02T07:31:39.236Z,2.00
2023-03-02T07:34:06.160Z,2.20
2023-03-02T07:36:32.997Z,1.43
2023-03-02T07:39:01.964Z,1.63
2023-03-02T07:41:28.818Z,1.37
2023-03-02T07:43:56.464Z,2.00
2023-03-02T07:46:23.313Z,1.93
2023-03-02T07:48:50.212Z,2.10
2023-03-02T07:51:17.067Z,1.63
2023-03-02T07:53:43.919Z,0.90
2023-03-02T07:56:11.776Z,2.67
2023-03-02T07:58:38.891Z,2.53
2023-03-02T08:01:06.061Z,1.37
2023-03-02T08:03:33.072Z,1.00
2023-03-02T08:06:08.395Z,1.63
2023-03-02T08:08:36.072Z,1.10
2023-03-02T08:11:11.563Z,1.53
2023-03-02T08:13:38.707Z,1.17
2023-03-02T08:16:08.086Z,1.20
2023-03-02T08:18:35.848Z,2.00
2023-03-02T08:21:03.058Z,2.07
2023-03-02T08:23:29.974Z,1.23
2023-03-02T08:25:56.913Z,1.53
2023-03-02T08:28:23.726Z,0.97
2023-03-02T08:31:00.872Z,1.97
2023-03-02T08:33:28.337Z,1.70
2023-03-02T08:36:04.238Z,1.80
2023-03-02T08:38:32.458Z,0.97
2023-03-02T08:41:02.477Z,1.93
2023-03-02T08:43:29.683Z,1.27
2023-03-02T08:45:57.978Z,0.93
2023-03-02T08:48:26.396Z,1.67
2023-03-02T08:51:02.102Z,1.53
2023-03-02T08:53:32.918Z,1.13
2023-03-02T08:56:00.224Z,2.33
2023-03-02T08:58:27.383Z,1.53
2023-03-02T09:00:54.291Z,0.97
2023-03-02T09:03:21.814Z,2.27
2023-03-02T09:05:48.692Z,0.97
2023-03-02T09:08:15.508Z,0.90
2023-03-02T09:10:42.317Z,0.63
2023-03-02T09:13:09.330Z,0.60
2023-03-02T09:15:37.089Z,1.17
2023-03-02T09:18:04.063Z,1.63
2023-03-02T09:20:31.273Z,1.50
2023-03-02T09:22:58.357Z,0.80
2023-03-02T09:25:25.191Z,2.47
2023-03-02T09:27:52.158Z,1.23
2023-03-02T09:30:19.049Z,1.13
2023-03-02T09:32:46.264Z,1.03
2023-03-02T09:35:13.236Z,1.23
2023-03-02T09:37:41.361Z,1.57
2023-03-02T09:40:21.984Z,0.90
2023-03-02T09:43:13.358Z,0.73
2023-03-02T09:45:40.570Z,1.87
2023-03-02T09:48:37.724Z,1.37
2023-03-02T09:51:07.426Z,1.73
2023-03-02T09:53:40.077Z,1.80
2023-03-02T09:56:16.493Z,1.43
2023-03-02T09:59:06.242Z,1.23
2023-03-02T10:01:44.060Z,1.20
2023-03-02T10:04:21.275Z,1.10
2023-03-02T10:06:52.859Z,1.37
2023-03-02T10:09:19.716Z,1.10
2023-03-02T10:12:31.252Z,0.80
2023-03-02T10:15:14.693Z,1.00
2023-03-02T10:18:00.728Z,0.80
2023-03-02T10:20:36.908Z,0.60
2023-03-02T10:23:18.846Z,1.10
2023-03-02T10:25:52.452Z,0.80
2023-03-02T10:28:52.120Z,1.50
2023-03-02T10:31:25.107Z,1.10
2023-03-02T10:33:52.096Z,0.73
2023-03-02T10:36:24.261Z,0.70
2023-03-02T10:38:52.493Z,0.97
2023-03-02T10:41:30.408Z,0.60
2023-03-02T10:44:20.534Z,1.27
2023-03-02T10:46:47.773Z,1.70
2023-03-02T10:49:39.484Z,0.40
2023-03-02T10:52:18.311Z,1.03
2023-03-02T10:54:45.780Z,0.37
2023-03-02T10:57:41.052Z,0.80
2023-03-02T11:00:14.326Z,0.43
2023-03-02T11:02:55.992Z,1.10
2023-03-02T11:05:34.367Z,0.67
2023-03-02T11:08:03.927Z,0.87
2023-03-02T11:10:36.740Z,1.00
2023-03-02T11:13:24.219Z,1.37
2023-03-02T11:15:52.682Z,1.30
2023-03-02T11:18:35.059Z,1.43
2023-03-02T11:21:22.233Z,0.70
2023-03-02T11:24:10.021Z,1.23
2023-03-02T11:26:52.079Z,0.73
2023-03-02T11:29:30.797Z,1.13
2023-03-02T11:32:04.593Z,0.63
2023-03-02T11:34:50.073Z,1.00
2023-03-02T11:37:26.018Z,0.53
2023-03-02T11:40:04.010Z,1.00
2023-03-02T11:42:37.175Z,1.07
2023-03-02T11:45:13.843Z,0.90
2023-03-02T11:48:05.718Z,0.80
2023-03-02T11:50:40.657Z,0.40
2023-03-02T11:53:14.495Z,0.67
2023-03-02T11:55:45.763Z,0.87
2023-03-02T11:58:22.374Z,1.60
2023-03-02T12:00:50.943Z,0.63
2023-03-02T12:03:17.811Z,1.53
2023-03-02T12:05:58.749Z,0.87
2023-03-02T12:08:25.975Z,0.60
2023-03-02T12:11:18.456Z,1.00
2023-03-02T12:13:49.356Z,1.47
2023-03-02T12:16:24.074Z,1.17
2023-03-02T12:18:54.098Z,0.87
2023-03-02T12:21:24.220Z,1.20
2023-03-02T12:23:51.045Z,1.10
2023-03-02T12:26:20.625Z,1.23
2023-03-02T12:29:06.808Z,0.83
2023-03-02T12:31:48.877Z,1.33
2023-03-02T12:34:24.991Z,0.57
2023-03-02T12:36:55.673Z,0.53
2023-03-02T12:40:10.409Z,0.90
2023-03-02T12:43:08.177Z,1.17
2023-03-02T12:46:28.884Z,0.83
2023-03-02T12:49:20.221Z,1.93
2023-03-02T12:51:52.383Z,1.40
2023-03-02T12:54:22.024Z,0.80
2023-03-02T12:56:49.736Z,0.83
2023-03-02T12:59:27.787Z,0.80
2023-03-02T13:02:16.493Z,0.73
2023-03-02T13:04:43.874Z,0.90
2023-03-02T13:07:20.169Z,0.90
2023-03-02T13:09:56.514Z,1.47
2023-03-02T13:12:29.333Z,0.70
2023-03-02T13:14:58.715Z,0.70
2023-03-02T13:17:31.192Z,1.40
2023-03-02T13:20:03.866Z,1.23
2023-03-02T13:22:31.063Z,0.90
2023-03-02T13:24:59.112Z,1.33
2023-03-02T13:27:26.760Z,0.77
2023-03-02T13:29:55.725Z,0.95
2023-03-02T13:32:34.668Z,1.27
2023-03-02T13:35:03.264Z,0.88
2023-03-02T13:37:43.843Z,1.73
2023-03-02T13:40:23.226Z,1.20
2023-03-02T13:42:51.242Z,2.58
2023-03-02T13:45:31.021Z,0.95
2023-03-02T13:48:00.501Z,0.85
2023-03-02T13:50:30.139Z,1.17
2023-03-02T13:52:59.719Z,1.08
2023-03-02T13:55:26.825Z,0.88
2023-03-02T13:57:54.717Z,1.55
2023-03-02T14:00:29.040Z,0.75
2023-03-02T14:02:55.882Z,0.77
2023-03-02T14:05:27.173Z,0.85
2023-03-02T14:07:54.203Z,1.15
2023-03-02T14:10:21.155Z,1.10
2023-03-02T14:12:57.184Z,1.10
2023-03-02T14:15:24.678Z,1.52
2023-03-02T14:17:51.530Z,0.95
2023-03-02T14:20:19.757Z,0.68
2023-03-02T14:22:47.811Z,0.85
2023-03-02T14:25:16.338Z,1.40
2023-03-02T14:27:44.048Z,0.60
2023-03-02T14:30:19.955Z,1.52
2023-03-02T14:32:47.423Z,0.47
2023-03-02T14:35:16.587Z,1.23
2023-03-02T14:37:47.121Z,1.13
2023-03-02T14:40:18.111Z,1.13
2023-03-02T14:42:45.063Z,0.82
2023-03-02T14:45:12.369Z,0.77
2023-03-02T14:47:40.062Z,0.90
2023-03-02T14:50:07.148Z,1.40
2023-03-02T14:52:38.736Z,0.67
2023-03-02T14:55:19.714Z,0.93
2023-03-02T14:57:50.690Z,0.73
2023-03-02T15:00:17.978Z,0.73
2023-03-02T15:02:44.919Z,0.83
2023-03-02T15:05:11.810Z,0.60
2023-03-02T15:07:39.097Z,0.83
2023-03-02T15:10:07.880Z,1.00
2023-03-02T15:12:34.916Z,0.70
2023-03-02T15:15:01.883Z,1.63
2023-03-02T15:17:28.795Z,1.13
2023-03-02T15:19:55.645Z,0.90
2023-03-02T15:22:22.800Z,1.37
2023-03-02T15:24:49.635Z,1.00
2023-03-02T15:27:16.537Z,1.20
2023-03-02T15:29:47.107Z,0.93
2023-03-02T15:32:14.626Z,0.63
2023-03-02T15:34:41.609Z,0.83
2023-03-02T15:37:12.844Z,1.10
2023-03-02T15:39:40.159Z,0.70
2023-03-02T15:42:07.420Z,0.93
2023-03-02T15:44:34.315Z,0.57
2023-03-02T15:47:01.448Z,0.97
2023-03-02T15:49:29.485Z,0.70
2023-03-02T15:51:59.965Z,0.63
2023-03-02T15:54:28.442Z,0.70
2023-03-02T15:56:55.523Z,0.40
2023-03-02T15:59:27.732Z,0.83
2023-03-02T16:01:59.374Z,0.67
2023-03-02T16:04:27.283Z,1.10
2023-03-02T16:06:55.076Z,0.70
2023-03-02T16:09:24.678Z,0.60
2023-03-02T16:11:52.267Z,1.07
2023-03-02T16:14:19.359Z,0.90
2023-03-02T16:16:46.666Z,1.10
2023-03-02T16:19:18.856Z,1.70
2023-03-02T16:21:46.678Z,0.50
2023-03-02T16:24:13.911Z,0.90
2023-03-02T16:26:40.722Z,1.10
2023-03-02T16:29:10.217Z,1.50
2023-03-02T16:31:39.249Z,4.27
2023-03-02T16:34:08.843Z,2.93
2023-03-02T16:36:37.996Z,2.53
2023-03-02T16:39:06.592Z,2.63
2023-03-02T16:41:33.838Z,2.50
2023-03-02T16:44:00.819Z,2.33
2023-03-02T16:46:31.118Z,2.43
2023-03-02T16:48:58.992Z,3.00
2023-03-02T16:51:26.075Z,1.97
2023-03-02T16:53:53.646Z,0.73
2023-03-02T16:56:20.876Z,1.37
2023-03-02T16:58:47.940Z,2.53
2023-03-02T17:01:20.479Z,2.13
2023-03-02T17:03:49.335Z,2.53
2023-03-02T17:06:17.837Z,3.17
2023-03-02T17:08:44.746Z,5.30
2023-03-02T17:11:11.652Z,2.03
2023-03-02T17:13:38.608Z,7.70
2023-03-02T17:16:06.298Z,5.87
2023-03-02T17:18:33.372Z,6.53
2023-03-02T17:21:01.046Z,5.53
2023-03-02T17:23:28.644Z,3.27
2023-03-02T17:25:56.133Z,3.33
2023-03-02T17:28:23.737Z,3.07
2023-03-02T17:30:50.768Z,1.97
2023-03-02T17:33:18.366Z,2.47
2023-03-02T17:35:46.302Z,1.77
2023-03-02T17:38:14.403Z,1.67
2023-03-02T17:40:41.947Z,3.23
2023-03-02T17:43:08.837Z,1.30
2023-03-02T17:45:35.761Z,3.00
2023-03-02T17:48:02.701Z,2.03
2023-03-02T17:50:32.824Z,2.00
2023-03-02T17:53:00.240Z,1.73
2023-03-02T17:55:27.333Z,1.53
2023-03-02T17:57:54.507Z,2.27
2023-03-02T18:00:22.956Z,2.00
2023-03-02T18:02:50.866Z,2.77
2023-03-02T18:05:17.948Z,2.70
2023-03-02T18:07:44.952Z,2.27
2023-03-02T18:10:13.484Z,2.60
2023-03-02T18:12:40.407Z,2.17
2023-03-02T18:15:08.207Z,3.23
2023-03-02T18:17:35.131Z,2.23
2023-03-02T18:20:02.156Z,2.63
2023-03-02T18:22:29.025Z,3.23
2023-03-02T18:24:55.912Z,2.30
2023-03-02T18:27:22.846Z,3.00
2023-03-02T18:29:49.748Z,3.10
2023-03-02T18:32:16.926Z,2.63
2023-03-02T18:34:44.035Z,2.87
2023-03-02T18:37:10.958Z,1.87
2023-03-02T18:39:37.926Z,2.30
2023-03-02T18:42:06.057Z,2.77
2023-03-02T18:44:33.770Z,2.43
2023-03-02T18:47:01.017Z,2.83
2023-03-02T18:49:28.261Z,2.60
2023-03-02T18:51:56.613Z,1.73
2023-03-02T18:54:24.644Z,3.60
2023-03-02T18:56:51.965Z,3.13
2023-03-02T18:59:19.048Z,1.23
2023-03-02T19:01:46.482Z,2.57
2023-03-02T19:04:14.476Z,3.90
2023-03-02T19:06:42.354Z,1.60
2023-03-02T19:09:09.642Z,1.60
2023-03-02T19:11:36.761Z,2.93
2023-03-02T19:14:04.015Z,2.87
2023-03-02T19:16:31.000Z,1.57
2023-03-02T19:18:58.016Z,2.17
2023-03-02T19:21:24.890Z,3.43
2023-03-02T19:23:51.958Z,1.60
2023-03-02T19:26:18.821Z,2.37
2023-03-02T19:28:45.800Z,1.13
2023-03-02T19:31:13.811Z,2.53
2023-03-02T19:33:42.404Z,1.70
2023-03-02T19:36:09.685Z,1.43
2023-03-02T19:38:40.648Z,1.80
2023-03-02T19:41:09.327Z,2.37
2023-03-02T19:43:36.757Z,1.73
2023-03-02T19:46:05.266Z,1.77
2023-03-02T19:48:34.023Z,2.17
2023-03-02T19:51:00.958Z,2.67
2023-03-02T19:53:27.980Z,1.77
2023-03-02T19:56:03.656Z,3.23
2023-03-02T19:58:32.395Z,2.00
2023-03-02T20:00:59.295Z,1.23
2023-03-02T20:03:26.265Z,3.50
2023-03-02T20:05:55.912Z,2.87
2023-03-02T20:08:22.912Z,2.13
2023-03-02T20:10:50.058Z,2.23
2023-03-02T20:13:17.688Z,1.90
2023-03-02T20:15:46.931Z,2.33
2023-03-02T20:18:17.403Z,1.60
2023-03-02T20:20:45.605Z,1.90
2023-03-02T20:23:13.346Z,2.90
2023-03-02T20:25:40.639Z,3.13
2023-03-02T20:28:11.826Z,2.03
2023-03-02T20:30:43.988Z,2.13
2023-03-02T20:33:11.721Z,3.10
2023-03-02T20:35:41.158Z,2.40
2023-03-02T20:38:10.873Z,2.80
2023-03-02T20:40:37.735Z,1.53
2023-03-02T20:43:05.389Z,1.97
2023-03-02T20:45:32.798Z,1.47
2023-03-02T20:47:59.646Z,1.50
2023-03-02T20:50:31.224Z,2.53
2023-03-02T20:52:59.436Z,3.50
2023-03-02T20:55:27.110Z,3.33
2023-03-02T20:57:55.332Z,2.37
2023-03-02T21:00:27.972Z,1.83
2023-03-02T21:02:54.912Z,2.90
2023-03-02T21:05:21.941Z,2.87
2023-03-02T21:07:49.527Z,1.53
2023-03-02T21:10:21.276Z,1.43
2023-03-02T21:12:49.085Z,2.77
2023-03-02T21:15:16.876Z,3.23
2023-03-02T21:17:43.688Z,2.33
2023-03-02T21:20:12.340Z,3.60
2023-03-02T21:22:39.284Z,2.90
2023-03-02T21:25:08.925Z,2.37
2023-03-02T21:27:37.159Z,3.80
2023-03-02T21:30:10.756Z,2.40
2023-03-02T21:32:37.626Z,2.30
2023-03-02T21:35:04.982Z,2.50
2023-03-02T21:37:31.896Z,2.77
2023-03-02T21:39:59.284Z,3.17
2023-03-02T21:42:26.203Z,3.17
2023-03-02T21:44:52.986Z,2.07
2023-03-02T21:47:20.188Z,2.63
2023-03-02T21:49:46.998Z,2.60
2023-03-02T21:52:13.933Z,3.70
2023-03-02T21:54:40.733Z,2.70
2023-03-02T21:57:09.639Z,1.60
2023-03-02T21:59:37.317Z,2.37
2023-03-02T22:02:05.106Z,2.97
2023-03-02T22:04:33.377Z,3.70
2023-03-02T22:07:01.480Z,2.33
2023-03-02T22:09:28.428Z,3.33
2023-03-02T22:11:55.247Z,2.17
2023-03-02T22:14:22.123Z,2.40
2023-03-02T22:16:50.023Z,2.13
2023-03-02T22:19:27.501Z,3.57
2023-03-02T22:21:56.527Z,2.90
2023-03-02T22:24:31.954Z,3.13
2023-03-02T22:27:16.535Z,1.93
2023-03-02T22:29:47.771Z,2.10
2023-03-02T22:32:28.147Z,1.93
2023-03-02T22:35:00.278Z,3.47
2023-03-02T22:37:29.403Z,2.90
2023-03-02T22:40:07.042Z,1.73
2023-03-02T22:42:33.967Z,1.50
2023-03-02T22:45:15.868Z,3.53
2023-03-02T22:47:44.423Z,3.17
2023-03-02T22:50:20.987Z,2.83
2023-03-02T22:52:48.368Z,2.53
2023-03-02T22:55:33.902Z,3.00
2023-03-02T22:58:20.666Z,3.50
2023-03-02T23:00:48.234Z,2.83
2023-03-02T23:03:21.132Z,3.03
2023-03-02T23:05:51.579Z,4.50
2023-03-02T23:08:21.076Z,2.20
2023-03-02T23:10:49.946Z,2.83
2023-03-02T23:13:19.744Z,4.60
2023-03-02T23:15:47.766Z,3.70
2023-03-02T23:18:22.445Z,3.13
2023-03-02T23:20:50.368Z,3.93
2023-03-02T23:23:18.282Z,2.87
2023-03-02T23:25:45.549Z,3.73
2023-03-02T23:28:12.919Z,6.23
2023-03-02T23:30:39.785Z,3.97
2023-03-02T23:33:06.989Z,2.73
2023-03-02T23:35:34.043Z,3.20
2023-03-02T23:38:01.534Z,6.23
2023-03-02T23:40:29.281Z,3.30
2023-03-02T23:42:56.113Z,3.17
2023-03-02T23:45:23.041Z,5.93
2023-03-02T23:47:49.904Z,4.00
2023-03-02T23:50:16.719Z,4.47
2023-03-02T23:52:43.576Z,4.90
2023-03-02T23:55:11.422Z,3.77
2023-03-02T23:57:38.225Z,3.87
